sensor_id;sensor_type;location;lat;lon;timestamp;pressure;altitude;pressure_sealevel;temperature;humidity
75617;BME280;64200;55.426;37.758;2023-02-01T00:02:45;98025.44;;;0.69;72.25
75617;BME280;64200;55.426;37.758;2023-02-01T00:07:49;98045.97;;;0.77;72.06
75617;BME280;64200;55.426;37.758;2023-02-01T00:12:49;98040.16;;;0.88;72.06
75617;BME280;64200;55.426;37.758;2023-02-01T00:17:54;98044.00;;;0.78;72.94
75617;BME280;64200;55.426;37.758;2023-02-01T00:22:55;98036.94;;;0.77;71.92
75617;BME280;64200;55.426;37.758;2023-02-01T00:27:55;98038.72;;;0.83;72.30
75617;BME280;64200;55.426;37.758;2023-02-01T00:32:58;98044.88;;;0.75;72.88
75617;BME280;64200;55.426;37.758;2023-02-01T00:37:59;98044.09;;;0.87;72.23
75617;BME280;64200;55.426;37.758;2023-02-01T00:43:00;98053.66;;;0.95;71.86
75617;BME280;64200;55.426;37.758;2023-02-01T00:48:01;98049.13;;;0.88;72.26
75617;BME280;64200;55.426;37.758;2023-02-01T00:53:01;98044.31;;;0.80;71.88
75617;BME280;64200;55.426;37.758;2023-02-01T00:58:02;98052.78;;;0.73;72.18
75617;BME280;64200;55.426;37.758;2023-02-01T01:03:03;98047.38;;;0.56;72.47
75617;BME280;64200;55.426;37.758;2023-02-01T01:08:17;98039.25;;;0.78;73.00
75617;BME280;64200;55.426;37.758;2023-02-01T01:13:18;98042.66;;;0.82;71.93
75617;BME280;64200;55.426;37.758;2023-02-01T01:18:18;98047.81;;;0.93;71.71
75617;BME280;64200;55.426;37.758;2023-02-01T01:23:19;98047.94;;;0.77;72.18
75617;BME280;64200;55.426;37.758;2023-02-01T01:28:19;98060.00;;;0.79;71.94
75617;BME280;64200;55.426;37.758;2023-02-01T01:33:20;98063.88;;;0.82;72.56
75617;BME280;64200;55.426;37.758;2023-02-01T01:38:20;98055.06;;;0.87;72.39
75617;BME280;64200;55.426;37.758;2023-02-01T01:43:21;98058.78;;;0.93;71.91
75617;BME280;64200;55.426;37.758;2023-02-01T01:48:29;98060.13;;;0.88;72.24
75617;BME280;64200;55.426;37.758;2023-02-01T01:53:34;98051.66;;;0.83;72.15
75617;BME280;64200;55.426;37.758;2023-02-01T01:58:36;98049.47;;;0.91;72.27
75617;BME280;64200;55.426;37.758;2023-02-01T02:03:47;98045.72;;;0.97;71.70
75617;BME280;64200;55.426;37.758;2023-02-01T02:08:48;98052.09;;;0.94;71.58
75617;BME280;64200;55.426;37.758;2023-02-01T02:13:51;98053.41;;;0.77;72.25
75617;BME280;64200;55.426;37.758;2023-02-01T02:29:37;98068.22;;;0.66;72.58
75617;BME280;64200;55.426;37.758;2023-02-01T02:34:47;98056.28;;;0.73;72.70
75617;BME280;64200;55.426;37.758;2023-02-01T02:40:14;98073.50;;;0.74;72.49
75617;BME280;64200;55.426;37.758;2023-02-01T02:51:08;98073.19;;;0.97;72.21
75617;BME280;64200;55.426;37.758;2023-02-01T02:56:29;98065.16;;;0.90;71.69
75617;BME280;64200;55.426;37.758;2023-02-01T03:01:48;98081.94;;;0.66;72.40
75617;BME280;64200;55.426;37.758;2023-02-01T03:07:53;98084.38;;;0.90;72.65
75617;BME280;64200;55.426;37.758;2023-02-01T03:13:01;98074.72;;;0.98;72.47
75617;BME280;64200;55.426;37.758;2023-02-01T03:18:09;98078.47;;;1.04;71.88
75617;BME280;64200;55.426;37.758;2023-02-01T03:23:13;98091.22;;;1.11;71.93
75617;BME280;64200;55.426;37.758;2023-02-01T03:28:17;98087.13;;;1.16;70.96
75617;BME280;64200;55.426;37.758;2023-02-01T03:33:23;98089.88;;;1.16;71.34
75617;BME280;64200;55.426;37.758;2023-02-01T03:38:39;98085.91;;;1.43;71.66
75617;BME280;64200;55.426;37.758;2023-02-01T03:44:04;98087.47;;;1.31;70.59
75617;BME280;64200;55.426;37.758;2023-02-01T03:49:09;98094.59;;;1.41;71.43
75617;BME280;64200;55.426;37.758;2023-02-01T03:54:13;98088.78;;;1.26;71.15
75617;BME280;64200;55.426;37.758;2023-02-01T03:59:15;98087.25;;;1.25;71.45
75617;BME280;64200;55.426;37.758;2023-02-01T04:04:15;98085.81;;;1.33;71.55
75617;BME280;64200;55.426;37.758;2023-02-01T04:09:20;98096.53;;;1.40;70.65
75617;BME280;64200;55.426;37.758;2023-02-01T04:14:20;98095.81;;;1.14;71.74
75617;BME280;64200;55.426;37.758;2023-02-01T04:19:21;98118.88;;;1.30;71.84
75617;BME280;64200;55.426;37.758;2023-02-01T04:24:21;98109.13;;;1.16;70.88
75617;BME280;64200;55.426;37.758;2023-02-01T04:29:22;98129.31;;;1.35;71.91
75617;BME280;64200;55.426;37.758;2023-02-01T04:34:22;98122.06;;;1.41;71.76
75617;BME280;64200;55.426;37.758;2023-02-01T04:39:24;98123.56;;;1.42;71.00
75617;BME280;64200;55.426;37.758;2023-02-01T04:44:25;98137.31;;;1.42;71.04
75617;BME280;64200;55.426;37.758;2023-02-01T04:49:26;98141.19;;;1.19;70.91
75617;BME280;64200;55.426;37.758;2023-02-01T04:54:26;98146.69;;;1.32;70.91
75617;BME280;64200;55.426;37.758;2023-02-01T04:59:27;98155.34;;;1.30;71.57
75617;BME280;64200;55.426;37.758;2023-02-01T05:04:29;98159.53;;;1.35;70.43
75617;BME280;64200;55.426;37.758;2023-02-01T05:09:29;98165.00;;;1.09;71.09
75617;BME280;64200;55.426;37.758;2023-02-01T05:14:30;98171.16;;;1.00;71.36
75617;BME280;64200;55.426;37.758;2023-02-01T05:19:30;98164.59;;;1.23;71.34
75617;BME280;64200;55.426;37.758;2023-02-01T05:24:30;98169.31;;;1.36;71.09
75617;BME280;64200;55.426;37.758;2023-02-01T05:29:31;98171.94;;;1.27;70.63
75617;BME280;64200;55.426;37.758;2023-02-01T05:34:31;98172.50;;;1.34;70.65
75617;BME280;64200;55.426;37.758;2023-02-01T05:39:32;98170.31;;;1.29;71.20
75617;BME280;64200;55.426;37.758;2023-02-01T05:44:33;98181.94;;;1.20;70.80
75617;BME280;64200;55.426;37.758;2023-02-01T05:49:33;98176.44;;;1.20;70.68
75617;BME280;64200;55.426;37.758;2023-02-01T05:54:33;98174.25;;;1.15;70.58
75617;BME280;64200;55.426;37.758;2023-02-01T05:59:34;98177.75;;;1.29;70.50
75617;BME280;64200;55.426;37.758;2023-02-01T06:04:36;98190.84;;;1.37;70.47
75617;BME280;64200;55.426;37.758;2023-02-01T06:09:37;98194.69;;;1.27;70.62
75617;BME280;64200;55.426;37.758;2023-02-01T06:14:37;98193.16;;;1.39;70.08
75617;BME280;64200;55.426;37.758;2023-02-01T06:19:38;98188.97;;;1.34;70.00
75617;BME280;64200;55.426;37.758;2023-02-01T06:24:40;98199.06;;;1.37;70.01
75617;BME280;64200;55.426;37.758;2023-02-01T06:29:41;98201.84;;;1.25;70.04
75617;BME280;64200;55.426;37.758;2023-02-01T06:34:41;98190.06;;;1.24;69.72
75617;BME280;64200;55.426;37.758;2023-02-01T06:39:42;98200.97;;;1.28;70.93
75617;BME280;64200;55.426;37.758;2023-02-01T06:44:42;98207.66;;;1.27;70.31
75617;BME280;64200;55.426;37.758;2023-02-01T06:49:43;98214.81;;;1.50;70.39
75617;BME280;64200;55.426;37.758;2023-02-01T06:54:43;98200.63;;;1.64;69.67
75617;BME280;64200;55.426;37.758;2023-02-01T06:59:43;98213.03;;;1.82;69.70
75617;BME280;64200;55.426;37.758;2023-02-01T07:04:44;98207.78;;;1.49;68.98
75617;BME280;64200;55.426;37.758;2023-02-01T07:09:45;98217.53;;;1.63;68.95
75617;BME280;64200;55.426;37.758;2023-02-01T07:14:45;98208.75;;;1.68;68.73
75617;BME280;64200;55.426;37.758;2023-02-01T07:19:48;98213.16;;;1.78;68.46
75617;BME280;64200;55.426;37.758;2023-02-01T07:24:48;98219.75;;;1.81;68.67
75617;BME280;64200;55.426;37.758;2023-02-01T07:29:49;98214.00;;;1.88;67.79
75617;BME280;64200;55.426;37.758;2023-02-01T07:34:49;98221.41;;;1.65;68.09
75617;BME280;64200;55.426;37.758;2023-02-01T07:39:51;98226.66;;;1.60;68.27
75617;BME280;64200;55.426;37.758;2023-02-01T07:44:51;98221.41;;;1.78;68.19
75617;BME280;64200;55.426;37.758;2023-02-01T07:49:52;98218.13;;;1.70;68.38
75617;BME280;64200;55.426;37.758;2023-02-01T07:54:52;98230.97;;;1.61;67.88
75617;BME280;64200;55.426;37.758;2023-02-01T07:59:53;98223.50;;;1.35;68.60
75617;BME280;64200;55.426;37.758;2023-02-01T08:05:12;98221.09;;;1.63;68.10
75617;BME280;64200;55.426;37.758;2023-02-01T08:10:12;98210.19;;;1.85;67.89
75617;BME280;64200;55.426;37.758;2023-02-01T08:15:14;98232.19;;;1.72;67.63
75617;BME280;64200;55.426;37.758;2023-02-01T08:20:16;98228.44;;;1.53;68.24
75617;BME280;64200;55.426;37.758;2023-02-01T08:25:17;98227.97;;;1.42;68.32
75617;BME280;64200;55.426;37.758;2023-02-01T08:30:18;98214.69;;;1.53;68.32
75617;BME280;64200;55.426;37.758;2023-02-01T08:35:18;98218.56;;;1.56;68.14
75617;BME280;64200;55.426;37.758;2023-02-01T08:40:19;98215.00;;;1.81;67.63
75617;BME280;64200;55.426;37.758;2023-02-01T08:45:24;98219.72;;;1.93;66.84
75617;BME280;64200;55.426;37.758;2023-02-01T08:50:26;98203.94;;;1.72;66.96
75617;BME280;64200;55.426;37.758;2023-02-01T08:55:26;98221.50;;;1.36;67.38
75617;BME280;64200;55.426;37.758;2023-02-01T09:00:27;98224.25;;;1.49;67.47
75617;BME280;64200;55.426;37.758;2023-02-01T09:05:28;98226.56;;;1.37;67.51
75617;BME280;64200;55.426;37.758;2023-02-01T09:10:29;98209.19;;;1.40;68.19
75617;BME280;64200;55.426;37.758;2023-02-01T09:15:29;98216.34;;;1.51;67.86
75617;BME280;64200;55.426;37.758;2023-02-01T09:20:30;98216.25;;;1.54;67.34
75617;BME280;64200;55.426;37.758;2023-02-01T09:25:30;98218.19;;;1.54;66.81
75617;BME280;64200;55.426;37.758;2023-02-01T09:30:35;98207.97;;;1.67;67.25
75617;BME280;64200;55.426;37.758;2023-02-01T09:35:35;98192.56;;;1.83;67.05
75617;BME280;64200;55.426;37.758;2023-02-01T09:40:41;98193.63;;;1.98;67.01
75617;BME280;64200;55.426;37.758;2023-02-01T09:50:56;98197.63;;;1.84;65.87
75617;BME280;64200;55.426;37.758;2023-02-01T09:56:06;98198.31;;;1.63;66.45
75617;BME280;64200;55.426;37.758;2023-02-01T10:01:24;98197.94;;;1.86;66.91
75617;BME280;64200;55.426;37.758;2023-02-01T10:27:44;98170.44;;;1.99;66.54
75617;BME280;64200;55.426;37.758;2023-02-01T10:32:49;98169.16;;;2.13;65.08
75617;BME280;64200;55.426;37.758;2023-02-01T10:37:50;98173.22;;;2.21;64.79
75617;BME280;64200;55.426;37.758;2023-02-01T10:42:52;98176.50;;;2.29;65.20
75617;BME280;64200;55.426;37.758;2023-02-01T10:47:56;98175.63;;;1.84;65.12
75617;BME280;64200;55.426;37.758;2023-02-01T10:58:26;98175.13;;;2.11;64.69
75617;BME280;64200;55.426;37.758;2023-02-01T11:08:42;98180.97;;;2.14;64.51
75617;BME280;64200;55.426;37.758;2023-02-01T11:13:44;98169.13;;;1.91;63.94
75617;BME280;64200;55.426;37.758;2023-02-01T11:18:44;98172.97;;;1.93;64.54
75617;BME280;64200;55.426;37.758;2023-02-01T11:23:45;98179.13;;;1.98;64.69
75617;BME280;64200;55.426;37.758;2023-02-01T11:28:56;98178.69;;;1.99;64.54
75617;BME280;64200;55.426;37.758;2023-02-01T11:34:04;98177.06;;;1.89;64.50
75617;BME280;64200;55.426;37.758;2023-02-01T11:44:30;98187.00;;;1.73;64.87
75617;BME280;64200;55.426;37.758;2023-02-01T11:49:31;98195.75;;;1.94;65.14
75617;BME280;64200;55.426;37.758;2023-02-01T12:00:26;98193.03;;;1.68;64.92
75617;BME280;64200;55.426;37.758;2023-02-01T12:21:54;98230.31;;;1.82;65.00
75617;BME280;64200;55.426;37.758;2023-02-01T12:43:11;98234.34;;;2.03;64.85
75617;BME280;64200;55.426;37.758;2023-02-01T12:53:51;98240.84;;;1.58;65.46
75617;BME280;64200;55.426;37.758;2023-02-01T12:58:55;98244.38;;;1.46;65.17
75617;BME280;64200;55.426;37.758;2023-02-01T13:04:15;98249.41;;;1.34;65.68
75617;BME280;64200;55.426;37.758;2023-02-01T13:09:27;98240.97;;;1.42;65.58
75617;BME280;64200;55.426;37.758;2023-02-01T13:14:43;98253.50;;;1.43;65.56
75617;BME280;64200;55.426;37.758;2023-02-01T13:25:04;98240.41;;;1.34;65.02
75617;BME280;64200;55.426;37.758;2023-02-01T13:40:47;98242.69;;;1.22;65.42
75617;BME280;64200;55.426;37.758;2023-02-01T13:45:54;98243.34;;;1.14;64.66
75617;BME280;64200;55.426;37.758;2023-02-01T13:50:57;98245.72;;;0.99;65.70
75617;BME280;64200;55.426;37.758;2023-02-01T14:11:35;98262.16;;;0.57;67.53
75617;BME280;64200;55.426;37.758;2023-02-01T14:16:36;98245.97;;;0.75;67.43
75617;BME280;64200;55.426;37.758;2023-02-01T14:21:48;98240.34;;;0.66;68.28
75617;BME280;64200;55.426;37.758;2023-02-01T14:26:50;98237.78;;;0.59;67.89
75617;BME280;64200;55.426;37.758;2023-02-01T14:37:06;98271.47;;;0.59;68.81
75617;BME280;64200;55.426;37.758;2023-02-01T14:42:21;98256.00;;;0.82;68.28
75617;BME280;64200;55.426;37.758;2023-02-01T14:52:50;98280.03;;;0.78;68.01
75617;BME280;64200;55.426;37.758;2023-02-01T14:57:50;98278.66;;;0.86;67.35
75617;BME280;64200;55.426;37.758;2023-02-01T15:02:54;98276.91;;;0.92;67.26
75617;BME280;64200;55.426;37.758;2023-02-01T15:07:55;98273.59;;;0.84;67.33
75617;BME280;64200;55.426;37.758;2023-02-01T15:12:57;98269.38;;;0.80;67.34
75617;BME280;64200;55.426;37.758;2023-02-01T15:17:59;98288.56;;;0.67;68.31
75617;BME280;64200;55.426;37.758;2023-02-01T15:23:02;98283.09;;;0.80;68.29
75617;BME280;64200;55.426;37.758;2023-02-01T15:28:05;98276.22;;;0.88;67.49
75617;BME280;64200;55.426;37.758;2023-02-01T15:43:38;98289.75;;;0.95;68.04
75617;BME280;64200;55.426;37.758;2023-02-01T15:48:43;98295.56;;;0.97;67.94
75617;BME280;64200;55.426;37.758;2023-02-01T15:53:49;98297.75;;;0.90;68.69
75617;BME280;64200;55.426;37.758;2023-02-01T15:58:57;98301.38;;;0.41;69.88
75617;BME280;64200;55.426;37.758;2023-02-01T16:04:04;98298.34;;;0.51;69.62
75617;BME280;64200;55.426;37.758;2023-02-01T16:09:12;98300.75;;;0.49;69.69
75617;BME280;64200;55.426;37.758;2023-02-01T16:14:14;98294.75;;;0.38;69.86
75617;BME280;64200;55.426;37.758;2023-02-01T16:19:14;98308.56;;;0.51;69.33
75617;BME280;64200;55.426;37.758;2023-02-01T16:24:15;98304.69;;;0.48;69.88
75617;BME280;64200;55.426;37.758;2023-02-01T16:29:15;98298.19;;;0.42;69.09
75617;BME280;64200;55.426;37.758;2023-02-01T16:34:17;98293.56;;;0.39;68.89
75617;BME280;64200;55.426;37.758;2023-02-01T16:39:18;98291.97;;;0.25;68.50
75617;BME280;64200;55.426;37.758;2023-02-01T16:44:19;98301.19;;;0.31;68.50
75617;BME280;64200;55.426;37.758;2023-02-01T16:49:22;98313.25;;;0.67;68.26
75617;BME280;64200;55.426;37.758;2023-02-01T16:54:23;98312.72;;;0.72;68.21
75617;BME280;64200;55.426;37.758;2023-02-01T16:59:24;98319.41;;;0.71;68.65
75617;BME280;64200;55.426;37.758;2023-02-01T17:04:24;98310.06;;;0.68;67.62
75617;BME280;64200;55.426;37.758;2023-02-01T17:09:25;98302.03;;;0.61;67.69
75617;BME280;64200;55.426;37.758;2023-02-01T17:14:25;98305.13;;;0.47;67.14
75617;BME280;64200;55.426;37.758;2023-02-01T17:19:26;98312.44;;;0.37;67.02
75617;BME280;64200;55.426;37.758;2023-02-01T17:24:29;98311.13;;;0.42;67.58
75617;BME280;64200;55.426;37.758;2023-02-01T17:29:29;98307.50;;;0.61;67.45
75617;BME280;64200;55.426;37.758;2023-02-01T17:34:31;98298.53;;;0.61;67.10
75617;BME280;64200;55.426;37.758;2023-02-01T17:39:32;98303.41;;;0.53;67.05
75617;BME280;64200;55.426;37.758;2023-02-01T17:45:01;98298.75;;;0.66;67.28
75617;BME280;64200;55.426;37.758;2023-02-01T17:50:01;98303.31;;;0.57;66.44
75617;BME280;64200;55.426;37.758;2023-02-01T17:55:17;98304.19;;;0.54;66.74
75617;BME280;64200;55.426;37.758;2023-02-01T18:00:19;98307.69;;;0.54;66.98
75617;BME280;64200;55.426;37.758;2023-02-01T18:05:26;98297.31;;;0.45;66.75
75617;BME280;64200;55.426;37.758;2023-02-01T18:10:28;98297.31;;;0.45;66.71
75617;BME280;64200;55.426;37.758;2023-02-01T18:15:29;98306.94;;;0.21;67.23
75617;BME280;64200;55.426;37.758;2023-02-01T18:20:30;98298.09;;;0.29;66.76
75617;BME280;64200;55.426;37.758;2023-02-01T18:25:31;98302.13;;;0.25;67.04
75617;BME280;64200;55.426;37.758;2023-02-01T18:30:37;98315.34;;;0.30;67.21
75617;BME280;64200;55.426;37.758;2023-02-01T18:35:38;98295.09;;;0.07;68.24
75617;BME280;64200;55.426;37.758;2023-02-01T18:40:51;98309.00;;;0.00;69.47
75617;BME280;64200;55.426;37.758;2023-02-01T18:45:52;98294.44;;;0.03;69.13
75617;BME280;64200;55.426;37.758;2023-02-01T18:50:54;98308.81;;;-0.09;69.70
75617;BME280;64200;55.426;37.758;2023-02-01T18:55:57;98303.53;;;0.16;68.95
75617;BME280;64200;55.426;37.758;2023-02-01T19:01:05;98307.78;;;0.17;69.72
75617;BME280;64200;55.426;37.758;2023-02-01T19:06:06;98302.31;;;0.01;69.89
75617;BME280;64200;55.426;37.758;2023-02-01T19:11:08;98298.22;;;0.09;70.36
75617;BME280;64200;55.426;37.758;2023-02-01T19:16:11;98297.97;;;-0.33;71.59
75617;BME280;64200;55.426;37.758;2023-02-01T19:21:12;98313.00;;;-0.05;71.07
75617;BME280;64200;55.426;37.758;2023-02-01T19:26:14;98315.97;;;-0.32;72.29
75617;BME280;64200;55.426;37.758;2023-02-01T19:31:15;98302.41;;;-0.39;72.98
75617;BME280;64200;55.426;37.758;2023-02-01T19:36:15;98297.44;;;-0.81;74.85
75617;BME280;64200;55.426;37.758;2023-02-01T19:41:16;98291.44;;;-0.56;74.49
75617;BME280;64200;55.426;37.758;2023-02-01T19:46:16;98302.66;;;-0.50;73.87
75617;BME280;64200;55.426;37.758;2023-02-01T19:51:19;98306.59;;;-0.51;73.93
75617;BME280;64200;55.426;37.758;2023-02-01T19:56:20;98301.06;;;-0.47;73.90
75617;BME280;64200;55.426;37.758;2023-02-01T20:01:20;98312.38;;;-0.29;73.49
75617;BME280;64200;55.426;37.758;2023-02-01T20:06:20;98311.13;;;-0.08;73.09
75617;BME280;64200;55.426;37.758;2023-02-01T20:11:25;98302.47;;;-0.06;73.10
75617;BME280;64200;55.426;37.758;2023-02-01T20:16:26;98314.81;;;0.02;71.96
75617;BME280;64200;55.426;37.758;2023-02-01T20:21:27;98327.28;;;-0.13;72.38
75617;BME280;64200;55.426;37.758;2023-02-01T20:26:28;98303.56;;;-0.20;71.77
75617;BME280;64200;55.426;37.758;2023-02-01T20:31:29;98318.00;;;0.01;72.18
75617;BME280;64200;55.426;37.758;2023-02-01T20:36:31;98324.16;;;0.05;71.89
75617;BME280;64200;55.426;37.758;2023-02-01T20:41:32;98323.72;;;-0.10;72.00
75617;BME280;64200;55.426;37.758;2023-02-01T20:46:32;98316.75;;;-0.15;71.94
75617;BME280;64200;55.426;37.758;2023-02-01T20:51:33;98325.22;;;-0.26;72.64
75617;BME280;64200;55.426;37.758;2023-02-01T20:56:33;98309.38;;;-0.18;72.52
75617;BME280;64200;55.426;37.758;2023-02-01T21:01:34;98311.47;;;-0.22;72.57
75617;BME280;64200;55.426;37.758;2023-02-01T21:06:34;98307.16;;;-0.23;71.74
75617;BME280;64200;55.426;37.758;2023-02-01T21:11:35;98317.53;;;-0.31;72.63
75617;BME280;64200;55.426;37.758;2023-02-01T21:16:35;98316.25;;;-0.26;71.70
75617;BME280;64200;55.426;37.758;2023-02-01T21:21:36;98306.78;;;-0.42;72.26
75617;BME280;64200;55.426;37.758;2023-02-01T21:26:36;98312.50;;;-0.16;71.50
75617;BME280;64200;55.426;37.758;2023-02-01T21:31:41;98308.63;;;-0.19;72.34
75617;BME280;64200;55.426;37.758;2023-02-01T21:36:43;98313.97;;;-0.48;72.89
75617;BME280;64200;55.426;37.758;2023-02-01T21:41:44;98315.69;;;-0.38;71.80
75617;BME280;64200;55.426;37.758;2023-02-01T21:47:03;98319.91;;;-0.33;72.63
75617;BME280;64200;55.426;37.758;2023-02-01T21:52:04;98317.94;;;-0.32;72.40
75617;BME280;64200;55.426;37.758;2023-02-01T21:57:05;98325.16;;;-0.22;72.15
75617;BME280;64200;55.426;37.758;2023-02-01T22:02:13;98316.84;;;-0.19;71.97
75617;BME280;64200;55.426;37.758;2023-02-01T22:07:15;98319.50;;;-0.15;71.79
75617;BME280;64200;55.426;37.758;2023-02-01T22:12:16;98328.72;;;-0.25;72.07
75617;BME280;64200;55.426;37.758;2023-02-01T22:17:17;98318.47;;;-0.21;71.94
75617;BME280;64200;55.426;37.758;2023-02-01T22:22:17;98319.44;;;-0.11;71.61
75617;BME280;64200;55.426;37.758;2023-02-01T22:27:18;98318.19;;;-0.27;71.50
75617;BME280;64200;55.426;37.758;2023-02-01T22:32:18;98311.28;;;-0.15;71.63
75617;BME280;64200;55.426;37.758;2023-02-01T22:37:19;98304.69;;;-0.17;71.40
75617;BME280;64200;55.426;37.758;2023-02-01T22:42:20;98301.94;;;-0.34;72.38
75617;BME280;64200;55.426;37.758;2023-02-01T22:47:20;98304.59;;;-0.30;71.59
75617;BME280;64200;55.426;37.758;2023-02-01T22:52:21;98295.44;;;-0.24;71.50
75617;BME280;64200;55.426;37.758;2023-02-01T22:57:21;98317.88;;;-0.12;71.78
75617;BME280;64200;55.426;37.758;2023-02-01T23:02:22;98311.69;;;-0.16;71.55
75617;BME280;64200;55.426;37.758;2023-02-01T23:07:22;98312.50;;;-0.16;71.46
75617;BME280;64200;55.426;37.758;2023-02-01T23:12:23;98313.25;;;-0.15;71.98
75617;BME280;64200;55.426;37.758;2023-02-01T23:17:23;98311.66;;;0.04;71.72
75617;BME280;64200;55.426;37.758;2023-02-01T23:22:24;98309.84;;;-0.03;71.07
75617;BME280;64200;55.426;37.758;2023-02-01T23:27:25;98308.38;;;0.09;70.51
75617;BME280;64200;55.426;37.758;2023-02-01T23:32:29;98306.25;;;0.00;71.28
75617;BME280;64200;55.426;37.758;2023-02-01T23:37:29;98311.66;;;0.04;70.92
75617;BME280;64200;55.426;37.758;2023-02-01T23:42:30;98294.19;;;-0.03;70.61
75617;BME280;64200;55.426;37.758;2023-02-01T23:47:31;98301.81;;;0.06;71.18
75617;BME280;64200;55.426;37.758;2023-02-01T23:52:31;98296.13;;;-0.20;71.48
75617;BME280;64200;55.426;37.758;2023-02-01T23:57:32;98304.31;;;-0.36;70.82
